Pagrindinis puslapis
METAR-TAF:

METAR-TAF

Oro uostai :

Santa Krus de la Siera, Bolivija

platuma: 17-48S, ilguma: 063-11W, Aukštis: 418 m

Dabartinis oras

Ataskaita buvo paskelbta 44 minutes, ne 20:00 UTC
Vėjas 13 kt iš Pietų/Pietryčių
Temperatūra 31°C
Drėgmė 27%
Slėgis 1016 hPa
Matomumas 10 km arba daugiau
Mažai debesys ne aukštis 8000 ft
Su prošvaistėmis ne aukštis 20000 ft

METAR: SLET 222000Z 15013KT 9999 FEW080 BKN200 31/10 Q1016

Laikas: 16:44 (20:44 UTC)

Prognozė

Ataskaita buvo paskelbta 3 valandos ir 54 minutes, ne 16:50 UTC
Prognozė galioja nuo 22 metu 18 UTC su 23 metu 18 UTC
Vėjas 15 kt iš Pietų/Pietryčių su gūsio iki 30 kt
Matomumas 10 km arba daugiau
Tapsmas
nuo 22 metu 21 UTC su 22 metu 23 UTC
Vėjas 15 kt iš Pietų
Matomumas: 8000 m

TAF: SLET 221650Z 2218/2318 16015G30KT 9999 NSC TX32/2220Z TN22/2311Z BECMG 2221/2223 17015KT 8000

Orai ataskaitas ir orų prognozės (METAR, TAF).

turimą stotys yra geltonos ir raudonos taškus žemėlapyje.

Perkelti pele per norėdami pamatyti stoties vardą.

Tada spustelėkite, norėdami matyti oro stebėjimo ir prognozės.

Norėdami pakeisti žemėlapį: spustelėkite ant žalios mygtukų su juodo kryžiaus žemyn,; žalią mygtuką su brūkšneliu, jei norite nutolinti; arba žalių rodyklių gretimoms žemėlapius.


METAR-TAF: